sensor_id;sensor_type;location;lat;lon;timestamp;pressure;altitude;pressure_sealevel;temperature;humidity
81025;BME280;70500;50.292;6.666;2023-06-10T00:00:20;96198.06;;;23.39;51.19
81025;BME280;70500;50.292;6.666;2023-06-10T00:02:49;96196.81;;;23.40;51.25
81025;BME280;70500;50.292;6.666;2023-06-10T00:05:19;96200.06;;;23.39;51.54
81025;BME280;70500;50.292;6.666;2023-06-10T00:07:49;96195.09;;;23.37;51.40
81025;BME280;70500;50.292;6.666;2023-06-10T00:10:18;96198.59;;;23.38;51.31
81025;BME280;70500;50.292;6.666;2023-06-10T00:12:47;96199.34;;;23.38;51.28
81025;BME280;70500;50.292;6.666;2023-06-10T00:15:17;96201.34;;;23.38;51.18
81025;BME280;70500;50.292;6.666;2023-06-10T00:17:46;96199.06;;;23.36;51.56
81025;BME280;70500;50.292;6.666;2023-06-10T00:20:15;96203.81;;;23.35;51.24
81025;BME280;70500;50.292;6.666;2023-06-10T00:22:45;96205.06;;;23.34;51.39
81025;BME280;70500;50.292;6.666;2023-06-10T00:25:16;96208.56;;;23.35;51.17
81025;BME280;70500;50.292;6.666;2023-06-10T00:27:45;96201.34;;;23.32;51.38
81025;BME280;70500;50.292;6.666;2023-06-10T00:30:14;96207.56;;;23.32;51.29
81025;BME280;70500;50.292;6.666;2023-06-10T00:32:43;96204.84;;;23.32;51.24
81025;BME280;70500;50.292;6.666;2023-06-10T00:35:13;96208.09;;;23.31;51.53
81025;BME280;70500;50.292;6.666;2023-06-10T00:37:42;96206.63;;;23.30;51.38
81025;BME280;70500;50.292;6.666;2023-06-10T00:40:12;96212.88;;;23.30;51.11
81025;BME280;70500;50.292;6.666;2023-06-10T00:42:42;96215.06;;;23.32;51.36
81025;BME280;70500;50.292;6.666;2023-06-10T00:45:11;96206.84;;;23.32;51.61
81025;BME280;70500;50.292;6.666;2023-06-10T00:47:40;96208.84;;;23.31;51.73
81025;BME280;70500;50.292;6.666;2023-06-10T00:50:10;96210.84;;;23.31;52.02
81025;BME280;70500;50.292;6.666;2023-06-10T00:52:41;96217.59;;;23.30;51.86
81025;BME280;70500;50.292;6.666;2023-06-10T00:55:14;96208.63;;;23.29;51.95
81025;BME280;70500;50.292;6.666;2023-06-10T00:57:46;96210.63;;;23.29;51.82
81025;BME280;70500;50.292;6.666;2023-06-10T01:00:16;96209.38;;;23.30;51.73
81025;BME280;70500;50.292;6.666;2023-06-10T01:02:45;96209.13;;;23.28;51.32
81025;BME280;70500;50.292;6.666;2023-06-10T01:05:15;96212.38;;;23.26;51.66
81025;BME280;70500;50.292;6.666;2023-06-10T01:07:52;96206.16;;;23.26;51.27
81025;BME280;70500;50.292;6.666;2023-06-10T01:10:33;96207.41;;;23.25;51.28
81025;BME280;70500;50.292;6.666;2023-06-10T01:13:06;96209.41;;;23.24;51.47
81025;BME280;70500;50.292;6.666;2023-06-10T01:15:36;96203.91;;;23.24;51.33
81025;BME280;70500;50.292;6.666;2023-06-10T01:18:07;96201.69;;;23.23;51.36
81025;BME280;70500;50.292;6.666;2023-06-10T01:20:38;96213.41;;;23.23;51.23
81025;BME280;70500;50.292;6.666;2023-06-10T01:23:10;96207.91;;;23.23;51.34
81025;BME280;70500;50.292;6.666;2023-06-10T01:25:41;96214.66;;;23.22;51.18
81025;BME280;70500;50.292;6.666;2023-06-10T01:28:19;96211.16;;;23.22;51.29
81025;BME280;70500;50.292;6.666;2023-06-10T01:30:59;96212.66;;;23.23;51.80
81025;BME280;70500;50.292;6.666;2023-06-10T01:33:38;96212.38;;;23.26;52.53
81025;BME280;70500;50.292;6.666;2023-06-10T01:36:12;96215.88;;;23.27;52.86
81025;BME280;70500;50.292;6.666;2023-06-10T01:38:45;96212.63;;;23.28;52.63
81025;BME280;70500;50.292;6.666;2023-06-10T01:41:17;96207.13;;;23.28;52.74
81025;BME280;70500;50.292;6.666;2023-06-10T01:43:47;96211.88;;;23.28;52.55
81025;BME280;70500;50.292;6.666;2023-06-10T01:46:17;96212.38;;;23.26;53.04
81025;BME280;70500;50.292;6.666;2023-06-10T01:48:48;96212.38;;;23.26;53.22
81025;BME280;70500;50.292;6.666;2023-06-10T01:51:17;96210.38;;;23.27;53.02
81025;BME280;70500;50.292;6.666;2023-06-10T01:53:48;96219.13;;;23.25;53.27
81025;BME280;70500;50.292;6.666;2023-06-10T01:56:17;96210.66;;;23.23;53.11
81025;BME280;70500;50.292;6.666;2023-06-10T01:58:47;96214.66;;;23.22;53.40
81025;BME280;70500;50.292;6.666;2023-06-10T02:01:17;96214.66;;;23.22;53.62
81025;BME280;70500;50.292;6.666;2023-06-10T02:03:46;96218.91;;;23.23;53.59
81025;BME280;70500;50.292;6.666;2023-06-10T02:06:15;96217.41;;;23.22;53.55
81025;BME280;70500;50.292;6.666;2023-06-10T02:08:44;96210.44;;;23.21;53.67
81025;BME280;70500;50.292;6.666;2023-06-10T02:11:15;96221.66;;;23.23;53.39
81025;BME280;70500;50.292;6.666;2023-06-10T02:13:44;96211.91;;;23.22;53.52
81025;BME280;70500;50.292;6.666;2023-06-10T02:16:13;96216.41;;;23.20;53.72
81025;BME280;70500;50.292;6.666;2023-06-10T02:18:44;96222.16;;;23.22;53.67
81025;BME280;70500;50.292;6.666;2023-06-10T02:21:14;96224.91;;;23.22;53.83
81025;BME280;70500;50.292;6.666;2023-06-10T02:23:43;96226.16;;;23.21;53.98
81025;BME280;70500;50.292;6.666;2023-06-10T02:26:12;96224.91;;;23.22;53.84
81025;BME280;70500;50.292;6.666;2023-06-10T02:28:44;96219.91;;;23.20;53.43
81025;BME280;70500;50.292;6.666;2023-06-10T02:31:14;96218.91;;;23.23;53.64
81025;BME280;70500;50.292;6.666;2023-06-10T02:33:46;96215.91;;;23.21;53.99
81025;BME280;70500;50.292;6.666;2023-06-10T02:36:16;96220.16;;;23.22;53.69
81025;BME280;70500;50.292;6.666;2023-06-10T02:38:45;96217.91;;;23.21;53.53
81025;BME280;70500;50.292;6.666;2023-06-10T02:41:14;96223.41;;;23.21;53.32
81025;BME280;70500;50.292;6.666;2023-06-10T02:43:45;96219.91;;;23.20;53.32
81025;BME280;70500;50.292;6.666;2023-06-10T02:46:15;96226.66;;;23.19;53.36
81025;BME280;70500;50.292;6.666;2023-06-10T02:48:46;96219.69;;;23.18;53.48
81025;BME280;70500;50.292;6.666;2023-06-10T02:51:21;96218.19;;;23.17;53.11
81025;BME280;70500;50.292;6.666;2023-06-10T02:53:56;96225.69;;;23.17;53.39
81025;BME280;70500;50.292;6.666;2023-06-10T02:56:25;96222.94;;;23.17;52.95
81025;BME280;70500;50.292;6.666;2023-06-10T02:58:57;96222.69;;;23.15;53.43
81025;BME280;70500;50.292;6.666;2023-06-10T03:01:27;96217.94;;;23.15;55.43
81025;BME280;70500;50.292;6.666;2023-06-10T03:04:02;96226.19;;;23.15;55.87
81025;BME280;70500;50.292;6.666;2023-06-10T03:06:32;96219.19;;;23.14;55.60
81025;BME280;70500;50.292;6.666;2023-06-10T03:09:13;96232.69;;;23.12;55.08
81025;BME280;70500;50.292;6.666;2023-06-10T03:11:44;96217.50;;;23.11;54.77
81025;BME280;70500;50.292;6.666;2023-06-10T03:14:15;96228.47;;;23.11;54.62
81025;BME280;70500;50.292;6.666;2023-06-10T03:16:44;96228.25;;;23.09;54.60
81025;BME280;70500;50.292;6.666;2023-06-10T03:19:14;96231.22;;;23.11;54.31
81025;BME280;70500;50.292;6.666;2023-06-10T03:21:49;96227.50;;;23.09;54.20
81025;BME280;70500;50.292;6.666;2023-06-10T03:24:19;96229.25;;;23.06;54.36
81025;BME280;70500;50.292;6.666;2023-06-10T03:26:48;96231.25;;;23.06;54.22
81025;BME280;70500;50.292;6.666;2023-06-10T03:29:19;96238.00;;;23.05;53.94
81025;BME280;70500;50.292;6.666;2023-06-10T03:31:48;96242.22;;;23.06;54.18
81025;BME280;70500;50.292;6.666;2023-06-10T03:34:18;96243.25;;;23.03;54.02
81025;BME280;70500;50.292;6.666;2023-06-10T03:36:48;96236.78;;;23.00;53.84
81025;BME280;70500;50.292;6.666;2023-06-10T03:39:17;96243.00;;;23.00;54.08
81025;BME280;70500;50.292;6.666;2023-06-10T03:41:47;96240.03;;;22.98;53.93
81025;BME280;70500;50.292;6.666;2023-06-10T03:44:16;96244.75;;;22.98;54.00
81025;BME280;70500;50.292;6.666;2023-06-10T03:46:47;96247.28;;;22.96;53.69
81025;BME280;70500;50.292;6.666;2023-06-10T03:49:16;96248.00;;;22.96;53.97
81025;BME280;70500;50.292;6.666;2023-06-10T03:51:45;96255.00;;;22.97;53.93
81025;BME280;70500;50.292;6.666;2023-06-10T03:54:14;96248.53;;;22.95;53.87
81025;BME280;70500;50.292;6.666;2023-06-10T03:56:43;96256.75;;;22.95;53.73
81025;BME280;70500;50.292;6.666;2023-06-10T03:59:12;96253.50;;;22.96;53.53
81025;BME280;70500;50.292;6.666;2023-06-10T04:01:41;96247.78;;;22.94;53.75
81025;BME280;70500;50.292;6.666;2023-06-10T04:04:14;96252.00;;;22.95;53.39
81025;BME280;70500;50.292;6.666;2023-06-10T04:06:44;96251.78;;;22.93;53.48
81025;BME280;70500;50.292;6.666;2023-06-10T04:09:15;96248.81;;;22.91;53.68
81025;BME280;70500;50.292;6.666;2023-06-10T04:11:44;96257.03;;;22.91;53.61
81025;BME280;70500;50.292;6.666;2023-06-10T04:14:14;96254.31;;;22.91;53.63
81025;BME280;70500;50.292;6.666;2023-06-10T04:16:44;96242.03;;;22.92;53.44
81025;BME280;70500;50.292;6.666;2023-06-10T04:19:14;96249.78;;;22.94;53.22
81025;BME280;70500;50.292;6.666;2023-06-10T04:21:44;96253.03;;;22.92;53.44
81025;BME280;70500;50.292;6.666;2023-06-10T04:24:13;96252.53;;;22.94;53.20
81025;BME280;70500;50.292;6.666;2023-06-10T04:26:44;96253.78;;;22.93;53.09
81025;BME280;70500;50.292;6.666;2023-06-10T04:29:14;96261.50;;;22.94;53.37
81025;BME280;70500;50.292;6.666;2023-06-10T04:31:44;96264.25;;;22.94;53.38
81025;BME280;70500;50.292;6.666;2023-06-10T04:34:15;96267.28;;;22.91;53.17
81025;BME280;70500;50.292;6.666;2023-06-10T04:36:45;96266.53;;;22.90;53.25
81025;BME280;70500;50.292;6.666;2023-06-10T04:39:14;96267.00;;;22.94;53.06
81025;BME280;70500;50.292;6.666;2023-06-10T04:41:45;96268.25;;;22.93;53.09
81025;BME280;70500;50.292;6.666;2023-06-10T04:44:14;96265.50;;;22.93;53.12
81025;BME280;70500;50.292;6.666;2023-06-10T04:46:44;96262.75;;;22.93;53.02
81025;BME280;70500;50.292;6.666;2023-06-10T04:49:13;96270.47;;;22.95;52.82
81025;BME280;70500;50.292;6.666;2023-06-10T04:51:44;96267.00;;;22.94;53.07
81025;BME280;70500;50.292;6.666;2023-06-10T04:54:13;96272.97;;;22.93;53.11
81025;BME280;70500;50.292;6.666;2023-06-10T04:56:43;96262.00;;;22.93;52.92
81025;BME280;70500;50.292;6.666;2023-06-10T04:59:13;96261.78;;;22.91;53.21
81025;BME280;70500;50.292;6.666;2023-06-10T05:01:42;96265.28;;;22.91;52.91
81025;BME280;70500;50.292;6.666;2023-06-10T05:04:11;96257.78;;;22.92;52.95
81025;BME280;70500;50.292;6.666;2023-06-10T05:06:40;96269.00;;;22.94;53.21
81025;BME280;70500;50.292;6.666;2023-06-10T05:09:10;96272.47;;;22.94;53.07
81025;BME280;70500;50.292;6.666;2023-06-10T05:11:40;96263.00;;;22.95;52.97
81025;BME280;70500;50.292;6.666;2023-06-10T05:14:09;96267.72;;;22.95;52.82
81025;BME280;70500;50.292;6.666;2023-06-10T05:16:38;96270.47;;;22.95;52.73
81025;BME280;70500;50.292;6.666;2023-06-10T05:19:07;96266.47;;;22.96;52.75
81025;BME280;70500;50.292;6.666;2023-06-10T05:21:36;96266.47;;;22.96;52.77
81025;BME280;70500;50.292;6.666;2023-06-10T05:24:06;96267.22;;;22.96;52.88
81025;BME280;70500;50.292;6.666;2023-06-10T05:26:36;96267.97;;;22.97;52.65
81025;BME280;70500;50.292;6.666;2023-06-10T05:29:05;96266.72;;;22.98;52.93
81025;BME280;70500;50.292;6.666;2023-06-10T05:31:35;96267.47;;;22.98;52.65
81025;BME280;70500;50.292;6.666;2023-06-10T05:34:04;96266.22;;;22.99;52.77
81025;BME280;70500;50.292;6.666;2023-06-10T05:36:33;96261.97;;;22.98;52.60
81025;BME280;70500;50.292;6.666;2023-06-10T05:39:02;96260.97;;;23.02;52.87
81025;BME280;70500;50.292;6.666;2023-06-10T05:41:32;96269.22;;;23.02;52.64
81025;BME280;70500;50.292;6.666;2023-06-10T05:44:02;96264.69;;;23.04;52.69
81025;BME280;70500;50.292;6.666;2023-06-10T05:46:32;96266.47;;;23.02;52.59
81025;BME280;70500;50.292;6.666;2023-06-10T05:49:01;96265.72;;;23.01;52.79
81025;BME280;70500;50.292;6.666;2023-06-10T05:51:30;96264.69;;;23.04;52.55
81025;BME280;70500;50.292;6.666;2023-06-10T05:53:59;96263.97;;;23.04;52.49
81025;BME280;70500;50.292;6.666;2023-06-10T05:56:29;96275.41;;;23.08;52.39
81025;BME280;70500;50.292;6.666;2023-06-10T05:58:58;96273.69;;;23.05;52.68
81025;BME280;70500;50.292;6.666;2023-06-10T06:01:28;96276.16;;;23.08;52.39
81025;BME280;70500;50.292;6.666;2023-06-10T06:03:57;96272.91;;;23.10;52.55
81025;BME280;70500;50.292;6.666;2023-06-10T06:06:27;96283.16;;;23.09;52.24
81025;BME280;70500;50.292;6.666;2023-06-10T06:08:56;96279.91;;;23.11;52.30
81025;BME280;70500;50.292;6.666;2023-06-10T06:11:25;96274.41;;;23.11;52.12
81025;BME280;70500;50.292;6.666;2023-06-10T06:13:54;96278.63;;;23.12;52.24
81025;BME280;70500;50.292;6.666;2023-06-10T06:16:23;96284.34;;;23.14;52.34
81025;BME280;70500;50.292;6.666;2023-06-10T06:18:54;96281.09;;;23.15;52.07
81025;BME280;70500;50.292;6.666;2023-06-10T06:21:23;96277.84;;;23.17;52.31
81025;BME280;70500;50.292;6.666;2023-06-10T06:23:52;96275.84;;;23.17;52.23
81025;BME280;70500;50.292;6.666;2023-06-10T06:26:21;96279.34;;;23.18;52.11
81025;BME280;70500;50.292;6.666;2023-06-10T06:28:51;96285.81;;;23.20;52.22
81025;BME280;70500;50.292;6.666;2023-06-10T06:31:20;96281.81;;;23.21;52.14
81025;BME280;70500;50.292;6.666;2023-06-10T06:33:49;96282.56;;;23.22;51.92
81025;BME280;70500;50.292;6.666;2023-06-10T06:36:19;96289.03;;;23.24;51.90
81025;BME280;70500;50.292;6.666;2023-06-10T06:38:48;96284.28;;;23.25;51.64
81025;BME280;70500;50.292;6.666;2023-06-10T06:41:17;96286.78;;;23.28;51.97
81025;BME280;70500;50.292;6.666;2023-06-10T06:43:47;96290.25;;;23.29;51.80
81025;BME280;70500;50.292;6.666;2023-06-10T06:46:24;96291.00;;;23.29;52.09
81025;BME280;70500;50.292;6.666;2023-06-10T06:48:53;96290.72;;;23.33;51.44
81025;BME280;70500;50.292;6.666;2023-06-10T06:51:24;96288.72;;;23.33;51.58
81025;BME280;70500;50.292;6.666;2023-06-10T06:53:53;96292.22;;;23.34;51.56
81025;BME280;70500;50.292;6.666;2023-06-10T06:56:24;96285.47;;;23.35;51.79
81025;BME280;70500;50.292;6.666;2023-06-10T06:58:54;96284.22;;;23.36;51.47
81025;BME280;70500;50.292;6.666;2023-06-10T07:01:25;96288.72;;;23.39;51.43
81025;BME280;70500;50.292;6.666;2023-06-10T07:03:54;96286.22;;;23.41;51.24
81025;BME280;70500;50.292;6.666;2023-06-10T07:06:24;96285.69;;;23.43;51.44
81025;BME280;70500;50.292;6.666;2023-06-10T07:08:53;96282.44;;;23.44;51.14
81025;BME280;70500;50.292;6.666;2023-06-10T07:11:23;96288.19;;;23.46;51.14
81025;BME280;70500;50.292;6.666;2023-06-10T07:13:53;96286.19;;;23.47;51.01
81025;BME280;70500;50.292;6.666;2023-06-10T07:16:22;96284.41;;;23.49;51.03
81025;BME280;70500;50.292;6.666;2023-06-10T07:18:52;96282.41;;;23.50;51.00
81025;BME280;70500;50.292;6.666;2023-06-10T07:21:21;96281.88;;;23.51;50.90
81025;BME280;70500;50.292;6.666;2023-06-10T07:23:52;96279.88;;;23.52;51.26
81025;BME280;70500;50.292;6.666;2023-06-10T07:26:22;96275.38;;;23.54;50.96
81025;BME280;70500;50.292;6.666;2023-06-10T07:28:51;96280.34;;;23.56;51.26
81025;BME280;70500;50.292;6.666;2023-06-10T07:31:20;96281.84;;;23.57;50.80
81025;BME280;70500;50.292;6.666;2023-06-10T07:33:49;96282.59;;;23.57;51.10
81025;BME280;70500;50.292;6.666;2023-06-10T07:36:18;96281.34;;;23.58;50.81
81025;BME280;70500;50.292;6.666;2023-06-10T07:38:48;96286.31;;;23.60;50.71
81025;BME280;70500;50.292;6.666;2023-06-10T07:41:18;96287.81;;;23.61;50.57
81025;BME280;70500;50.292;6.666;2023-06-10T07:43:48;96286.56;;;23.62;50.95
81025;BME280;70500;50.292;6.666;2023-06-10T07:46:23;96288.06;;;23.63;51.03
81025;BME280;70500;50.292;6.666;2023-06-10T07:48:53;96289.03;;;23.65;50.95
81025;BME280;70500;50.292;6.666;2023-06-10T07:51:22;96289.78;;;23.66;50.92
81025;BME280;70500;50.292;6.666;2023-06-10T07:53:51;96289.28;;;23.67;50.87
81025;BME280;70500;50.292;6.666;2023-06-10T07:56:22;96289.47;;;23.69;50.62
81025;BME280;70500;50.292;6.666;2023-06-10T07:58:51;96290.22;;;23.70;50.73
81025;BME280;70500;50.292;6.666;2023-06-10T08:01:20;96287.47;;;23.70;50.67
81025;BME280;70500;50.292;6.666;2023-06-10T08:03:49;96293.22;;;23.72;50.43
81025;BME280;70500;50.292;6.666;2023-06-10T08:06:18;96291.44;;;23.75;50.31
81025;BME280;70500;50.292;6.666;2023-06-10T08:08:48;96292.19;;;23.75;50.29
81025;BME280;70500;50.292;6.666;2023-06-10T08:11:17;96301.94;;;23.76;50.59
81025;BME280;70500;50.292;6.666;2023-06-10T08:13:47;96300.66;;;23.77;50.41
81025;BME280;70500;50.292;6.666;2023-06-10T08:16:16;96301.41;;;23.78;50.10
81025;BME280;70500;50.292;6.666;2023-06-10T08:18:45;96295.41;;;23.79;50.21
81025;BME280;70500;50.292;6.666;2023-06-10T08:21:14;96297.66;;;23.81;50.05
81025;BME280;70500;50.292;6.666;2023-06-10T08:23:44;96295.13;;;23.83;49.78
81025;BME280;70500;50.292;6.666;2023-06-10T08:26:13;96301.38;;;23.83;49.71
81025;BME280;70500;50.292;6.666;2023-06-10T08:28:42;96294.63;;;23.84;49.92
81025;BME280;70500;50.292;6.666;2023-06-10T08:31:12;96302.34;;;23.86;50.20
81025;BME280;70500;50.292;6.666;2023-06-10T08:33:42;96296.13;;;23.85;50.15
81025;BME280;70500;50.292;6.666;2023-06-10T08:36:11;96302.06;;;23.89;50.21
81025;BME280;70500;50.292;6.666;2023-06-10T08:38:40;96299.31;;;23.89;49.65
81025;BME280;70500;50.292;6.666;2023-06-10T08:41:09;96298.06;;;23.90;50.10
81025;BME280;70500;50.292;6.666;2023-06-10T08:43:45;96300.28;;;23.92;49.72
81025;BME280;70500;50.292;6.666;2023-06-10T08:46:16;96297.78;;;23.94;49.49
81025;BME280;70500;50.292;6.666;2023-06-10T08:48:48;96300.00;;;23.95;49.58
81025;BME280;70500;50.292;6.666;2023-06-10T08:51:23;96302.00;;;23.95;49.60
81025;BME280;70500;50.292;6.666;2023-06-10T08:54:01;96304.25;;;23.96;49.29
81025;BME280;70500;50.292;6.666;2023-06-10T08:56:34;96305.00;;;23.97;49.00
81025;BME280;70500;50.292;6.666;2023-06-10T08:59:08;96305.22;;;23.99;49.10
81025;BME280;70500;50.292;6.666;2023-06-10T09:01:39;96299.75;;;23.99;49.22
81025;BME280;70500;50.292;6.666;2023-06-10T09:04:09;96308.22;;;24.01;48.91
81025;BME280;70500;50.292;6.666;2023-06-10T09:06:40;96299.47;;;24.02;48.90
81025;BME280;70500;50.292;6.666;2023-06-10T09:09:09;96300.22;;;24.03;49.01
81025;BME280;70500;50.292;6.666;2023-06-10T09:11:39;96291.97;;;24.03;48.99
81025;BME280;70500;50.292;6.666;2023-06-10T09:14:09;96289.22;;;24.03;49.03
81025;BME280;70500;50.292;6.666;2023-06-10T09:16:42;96286.69;;;24.05;48.80
81025;BME280;70500;50.292;6.666;2023-06-10T09:19:11;96285.44;;;24.06;48.63
81025;BME280;70500;50.292;6.666;2023-06-10T09:21:41;96288.94;;;24.07;48.39
81025;BME280;70500;50.292;6.666;2023-06-10T09:24:10;96291.13;;;24.08;48.82
81025;BME280;70500;50.292;6.666;2023-06-10T09:26:42;96287.88;;;24.10;48.09
81025;BME280;70500;50.292;6.666;2023-06-10T09:29:13;96292.88;;;24.11;48.08
81025;BME280;70500;50.292;6.666;2023-06-10T09:31:44;96290.13;;;24.11;48.45
81025;BME280;70500;50.292;6.666;2023-06-10T09:34:15;96295.13;;;24.13;47.93
81025;BME280;70500;50.292;6.666;2023-06-10T09:36:45;96299.38;;;24.14;47.86
81025;BME280;70500;50.292;6.666;2023-06-10T09:39:16;96291.13;;;24.14;47.86
81025;BME280;70500;50.292;6.666;2023-06-10T09:41:46;96291.13;;;24.14;47.70
81025;BME280;70500;50.292;6.666;2023-06-10T09:44:16;96292.63;;;24.15;48.19
81025;BME280;70500;50.292;6.666;2023-06-10T09:46:49;96294.09;;;24.16;47.96
81025;BME280;70500;50.292;6.666;2023-06-10T09:49:18;96303.84;;;24.17;47.98
81025;BME280;70500;50.292;6.666;2023-06-10T09:51:51;96300.59;;;24.18;47.97
81025;BME280;70500;50.292;6.666;2023-06-10T09:54:22;96289.59;;;24.18;47.44
81025;BME280;70500;50.292;6.666;2023-06-10T09:56:51;96297.09;;;24.18;47.71
81025;BME280;70500;50.292;6.666;2023-06-10T09:59:28;96298.56;;;24.19;47.91
81025;BME280;70500;50.292;6.666;2023-06-10T10:02:00;96293.31;;;24.21;47.23
81025;BME280;70500;50.292;6.666;2023-06-10T10:04:29;96294.06;;;24.21;46.99
81025;BME280;70500;50.292;6.666;2023-06-10T10:06:58;96292.56;;;24.20;47.28
81025;BME280;70500;50.292;6.666;2023-06-10T10:09:27;96292.56;;;24.20;47.41
81025;BME280;70500;50.292;6.666;2023-06-10T10:11:57;96286.31;;;24.20;47.89
81025;BME280;70500;50.292;6.666;2023-06-10T10:14:32;96290.56;;;24.21;47.58
81025;BME280;70500;50.292;6.666;2023-06-10T10:17:04;96300.81;;;24.20;47.69
81025;BME280;70500;50.292;6.666;2023-06-10T10:19:43;96296.81;;;24.21;47.66
81025;BME280;70500;50.292;6.666;2023-06-10T10:22:20;96291.31;;;24.21;47.16
81025;BME280;70500;50.292;6.666;2023-06-10T10:24:57;96289.81;;;24.20;47.36
81025;BME280;70500;50.292;6.666;2023-06-10T10:27:33;96285.81;;;24.21;47.87
81025;BME280;70500;50.292;6.666;2023-06-10T10:30:06;96294.81;;;24.22;47.13
81025;BME280;70500;50.292;6.666;2023-06-10T10:32:43;96287.81;;;24.21;47.14
81025;BME280;70500;50.292;6.666;2023-06-10T10:35:20;96292.28;;;24.24;47.55
81025;BME280;70500;50.292;6.666;2023-06-10T10:37:52;96292.28;;;24.24;47.32
81025;BME280;70500;50.292;6.666;2023-06-10T10:40:23;96292.81;;;24.22;46.96
81025;BME280;70500;50.292;6.666;2023-06-10T10:42:54;96285.28;;;24.23;46.87
81025;BME280;70500;50.292;6.666;2023-06-10T10:45:23;96288.78;;;24.23;47.34
81025;BME280;70500;50.292;6.666;2023-06-10T10:47:54;96290.78;;;24.23;47.44
81025;BME280;70500;50.292;6.666;2023-06-10T10:50:28;96286.03;;;24.23;47.10
81025;BME280;70500;50.292;6.666;2023-06-10T10:53:00;96289.53;;;24.24;47.01
81025;BME280;70500;50.292;6.666;2023-06-10T10:55:30;96294.06;;;24.21;47.84
81025;BME280;70500;50.292;6.666;2023-06-10T10:58:04;96304.53;;;24.23;47.08
81025;BME280;70500;50.292;6.666;2023-06-10T11:00:34;96288.78;;;24.23;46.96
81025;BME280;70500;50.292;6.666;2023-06-10T11:03:12;96298.53;;;24.24;46.66
81025;BME280;70500;50.292;6.666;2023-06-10T11:05:44;96284.03;;;24.24;47.20
81025;BME280;70500;50.292;6.666;2023-06-10T11:08:45;96285.81;;;24.21;46.79
81025;BME280;70500;50.292;6.666;2023-06-10T11:11:20;96290.03;;;24.22;46.95
81025;BME280;70500;50.292;6.666;2023-06-10T11:14:06;96292.28;;;24.24;47.11
81025;BME280;70500;50.292;6.666;2023-06-10T11:16:40;96297.03;;;24.23;46.67
81025;BME280;70500;50.292;6.666;2023-06-10T11:19:31;96301.78;;;24.23;46.95
81025;BME280;70500;50.292;6.666;2023-06-10T11:22:03;96292.81;;;24.22;46.61
81025;BME280;70500;50.292;6.666;2023-06-10T11:24:33;96288.78;;;24.23;47.08
81025;BME280;70500;50.292;6.666;2023-06-10T11:27:15;96290.28;;;24.24;46.49
81025;BME280;70500;50.292;6.666;2023-06-10T11:30:18;96283.28;;;24.23;46.83
81025;BME280;70500;50.292;6.666;2023-06-10T11:32:51;96276.28;;;24.22;47.08
81025;BME280;70500;50.292;6.666;2023-06-10T11:35:25;96272.06;;;24.21;46.58
81025;BME280;70500;50.292;6.666;2023-06-10T11:37:55;96268.03;;;24.22;46.16
81025;BME280;70500;50.292;6.666;2023-06-10T11:40:24;96283.28;;;24.23;46.06
81025;BME280;70500;50.292;6.666;2023-06-10T11:42:54;96276.28;;;24.22;46.22
81025;BME280;70500;50.292;6.666;2023-06-10T11:45:24;96281.78;;;24.22;46.54
81025;BME280;70500;50.292;6.666;2023-06-10T11:47:56;96277.78;;;24.23;46.34
81025;BME280;70500;50.292;6.666;2023-06-10T11:50:32;96285.28;;;24.23;46.20
81025;BME280;70500;50.292;6.666;2023-06-10T11:53:01;96280.53;;;24.23;45.81
81025;BME280;70500;50.292;6.666;2023-06-10T11:55:43;96276.28;;;24.22;46.13
81025;BME280;70500;50.292;6.666;2023-06-10T11:58:14;96269.53;;;24.23;45.85
81025;BME280;70500;50.292;6.666;2023-06-10T12:00:45;96267.28;;;24.22;46.09
81025;BME280;70500;50.292;6.666;2023-06-10T12:03:15;96263.81;;;24.21;46.92
81025;BME280;70500;50.292;6.666;2023-06-10T12:05:56;96277.56;;;24.21;46.90
81025;BME280;70500;50.292;6.666;2023-06-10T12:08:26;96274.81;;;24.21;46.58
81025;BME280;70500;50.292;6.666;2023-06-10T12:10:57;96276.81;;;24.21;46.30
81025;BME280;70500;50.292;6.666;2023-06-10T12:13:27;96266.03;;;24.23;45.95
81025;BME280;70500;50.292;6.666;2023-06-10T12:16:06;96261.06;;;24.21;46.09
81025;BME280;70500;50.292;6.666;2023-06-10T12:18:36;96263.28;;;24.23;45.90
81025;BME280;70500;50.292;6.666;2023-06-10T12:21:17;96264.78;;;24.24;45.83
81025;BME280;70500;50.292;6.666;2023-06-10T12:24:03;96257.03;;;24.22;45.95
81025;BME280;70500;50.292;6.666;2023-06-10T12:26:35;96255.78;;;24.23;45.82
81025;BME280;70500;50.292;6.666;2023-06-10T12:29:21;96251.53;;;24.22;45.63
81025;BME280;70500;50.292;6.666;2023-06-10T12:31:57;96244.03;;;24.23;45.80
81025;BME280;70500;50.292;6.666;2023-06-10T12:34:35;96240.31;;;24.20;46.20
81025;BME280;70500;50.292;6.666;2023-06-10T12:37:11;96252.06;;;24.21;46.69
81025;BME280;70500;50.292;6.666;2023-06-10T12:39:42;96259.56;;;24.20;46.87
81025;BME280;70500;50.292;6.666;2023-06-10T12:42:12;96254.81;;;24.21;45.84
81025;BME280;70500;50.292;6.666;2023-06-10T12:44:41;96255.78;;;24.23;45.54
81025;BME280;70500;50.292;6.666;2023-06-10T12:47:11;96258.53;;;24.23;46.13
81025;BME280;70500;50.292;6.666;2023-06-10T12:49:41;96251.03;;;24.24;46.08
81025;BME280;70500;50.292;6.666;2023-06-10T12:52:11;96246.03;;;24.22;45.86
81025;BME280;70500;50.292;6.666;2023-06-10T12:54:40;96254.53;;;24.24;45.70
81025;BME280;70500;50.292;6.666;2023-06-10T12:57:10;96243.28;;;24.22;45.58
81025;BME280;70500;50.292;6.666;2023-06-10T12:59:39;96246.28;;;24.24;45.90
81025;BME280;70500;50.292;6.666;2023-06-10T13:02:10;96244.25;;;24.25;45.95
81025;BME280;70500;50.292;6.666;2023-06-10T13:04:40;96250.28;;;24.23;46.22
81025;BME280;70500;50.292;6.666;2023-06-10T13:07:11;96251.53;;;24.22;46.41
81025;BME280;70500;50.292;6.666;2023-06-10T13:09:41;96249.53;;;24.23;45.96
81025;BME280;70500;50.292;6.666;2023-06-10T13:12:10;96258.03;;;24.25;45.55
81025;BME280;70500;50.292;6.666;2023-06-10T13:14:43;96251.25;;;24.26;45.29
81025;BME280;70500;50.292;6.666;2023-06-10T13:17:12;96245.75;;;24.26;45.62
81025;BME280;70500;50.292;6.666;2023-06-10T13:19:42;96243.00;;;24.26;45.94